• Join FlightAware (Why Join?)
  • Login
  • US Flag 
10:27AM EST


 

Airport Tracker/Info


-or-


 

Live Flight TrackerFlight Track Log ✈ UAL780 ✈ 25-May-2013 ✈ KSEA - KIAH

Flight Track Log - Related Links

Times and Time Zones

All times are in EDT time to prevent confusion due to time zone crossing. See the UAL780 flight status page for this flight to view local times or setup timezone preferences in your user account.

Time Position Orientation Groundspeed Altitude Reporting Facility
EDT Latitude Longitude Course Direction KTS MPH feet Rate Location/Type
03:14AM 47.4306 -122.3097 180° South 165 190 1,000  Level Seattle Center
03:15AM 47.3608 -122.3103 180° South 212 244 3,300 2,340 Climbing Seattle Center
03:16AM 47.2933 -122.2914 169° South 252 290 6,200 3,060 Climbing Seattle Center
03:17AM 47.2233 -122.2600 163° South 262 302 9,500 2,580 Climbing Seattle Center
03:18AM 47.1469 -122.2253 163° South 285 328 11,500 2,100 Climbing Seattle Center
03:19AM 47.0592 -122.1861 163° South 329 379 13,800 2,220 Climbing Seattle Center
03:20AM 46.9686 -122.1447 163° South 341 392 16,000 1,740 Climbing Seattle Center
03:21AM 46.8706 -122.1008 163° South 372 428 17,300 1,500 Climbing Seattle Center
03:22AM 46.7714 -122.0578 163° South 393 452 19,000 1,680 Climbing Seattle Center
03:23AM 46.6928 -121.9472 136° Southeast 415 478 20,700 1,620 Climbing Seattle Center
03:24AM 46.6367 -121.8022 119° Southeast 419 482 22,300 1,440 Climbing Seattle Center
03:25AM 46.5783 -121.6508 119° Southeast 430 495 23,700 1,320 Climbing Seattle Center
03:26AM 46.5153 -121.4847 119° Southeast 440 506 25,000 1,200 Climbing Seattle Center
03:27AM 46.4544 -121.3278 119° Southeast 449 517 26,200 1,080 Climbing Seattle Center
03:28AM 46.3925 -121.1667 119° Southeast 456 525 27,200 1,140 Climbing Seattle Center
03:29AM 46.3286 -121.0056 120° Southeast 461 531 28,500 1,320 Climbing Seattle Center
03:30AM 46.2664 -120.8453 119° Southeast 458 527 29,900 1,320 Climbing Seattle Center
03:31AM 46.2033 -120.6869 120° Southeast 456 525 31,200 1,200 Climbing Seattle Center
03:32AM 46.1406 -120.5306 120° Southeast 453 521 32,400 1,020 Climbing Seattle Center
03:33AM 46.0786 -120.3739 120° Southeast 450 518 33,300 840 Climbing Seattle Center
03:34AM 46.0150 -120.2161 120° Southeast 454 522 34,100 780 Climbing Seattle Center
03:35AM 45.9511 -120.0575 120° Southeast 457 526 34,900 420 Climbing Seattle Center
03:36AM 45.8867 -119.9006 120° Southeast 456 525 35,000  Climbing Seattle Center
03:37AM 45.8222 -119.7428 120° Southeast 458 527 35,000  Level Seattle Center
03:38AM 45.7572 -119.5875 121° Southeast 455 524 35,000  Level Seattle Center
03:39AM 45.6925 -119.4300 120° Southeast 457 526 35,000  Level Seattle Center
03:40AM 45.6278 -119.2733 121° Southeast 457 526 35,000  Level Seattle Center
03:41AM 45.5617 -119.1169 121° Southeast 459 528 35,000  Level Seattle Center
03:42AM 45.4961 -118.9614 121° Southeast 458 527 35,000  Level Seattle Center
03:43AM 45.4303 -118.8072 121° Southeast 455 524 35,000  Level Seattle Center
03:44AM 45.3647 -118.6531 121° Southeast 456 525 35,000  Level Seattle Center
03:45AM 45.2992 -118.4986 121° Southeast 456 525 35,000  Level Seattle Center
03:46AM 45.2333 -118.3458 121° Southeast 454 522 35,000  Level Seattle Center
03:47AM 45.1658 -118.1933 122° Southeast 456 525 35,000  Level Seattle Center
03:48AM 45.0983 -118.0381 122° Southeast 457 526 35,000  Level Seattle Center
03:49AM 45.0342 -117.8917 122° Southeast 458 527 35,000  Level Seattle Center
03:50AM 44.9706 -117.7450 121° Southeast 458 527 35,000  Level Salt Lake Center
03:51AM 44.8936 -117.5744 122° Southeast 462 532 35,000  Level Salt Lake Center
03:52AM 44.8297 -117.4278 122° Southeast 460 529 35,000  Level Salt Lake Center
03:53AM 44.7633 -117.2808 122° Southeast 464 534 35,000  Level Salt Lake Center
03:54AM 44.6975 -117.1342 122° Southeast 464 534 35,000  Level Salt Lake Center
03:55AM 44.6214 -116.9647 122° Southeast 461 531 35,000  Level Salt Lake Center
03:56AM 44.5550 -116.8186 122° Southeast 463 533 35,000  Level Salt Lake Center
03:57AM 44.4894 -116.6744 122° Southeast 461 531 35,000  Level Salt Lake Center
03:58AM 44.4128 -116.5081 123° Southeast 459 528 35,100  Climbing Salt Lake Center
03:59AM 44.3478 -116.3678 123° Southeast 456 525 35,000 -60 Descending Salt Lake Center
04:00AM 44.2844 -116.2300 123° Southeast 450 518 35,000 -60 Level Salt Lake Center
04:01AM 44.2114 -116.0692 122° Southeast 445 512 34,900  Descending Salt Lake Center
04:02AM 44.1442 -115.9294 124° Southeast 455 524 35,000  Climbing Salt Lake Center
04:03AM 44.0772 -115.7872 123° Southeast 459 528 35,000  Level Salt Lake Center
04:04AM 43.9981 -115.6200 123° Southeast 464 534 35,100  Climbing Salt Lake Center
04:05AM 43.9317 -115.4786 123° Southeast 459 528 35,000 -60 Descending Salt Lake Center
04:06AM 43.8647 -115.3375 123° Southeast 459 528 35,000  Level Salt Lake Center
04:07AM 43.7975 -115.1961 123° Southeast 459 528 35,000  Level Salt Lake Center
04:08AM 43.7172 -115.0331 124° Southeast 460 529 35,000  Level Salt Lake Center
04:09AM 43.6497 -114.8942 124° Southeast 456 525 35,000  Level Salt Lake Center
04:10AM 43.5819 -114.7536 124° Southeast 457 526 35,000  Level Salt Lake Center
04:11AM 43.5031 -114.5911 124° Southeast 457 526 35,000  Level Salt Lake Center
04:12AM 43.4344 -114.4525 124° Southeast 458 527 35,000  Level Salt Lake Center
04:13AM 43.3653 -114.3131 124° Southeast 459 528 35,000  Level Salt Lake Center
04:14AM 43.2964 -114.1761 125° Southeast 456 525 35,000  Level Salt Lake Center
04:15AM 43.2172 -114.0164 124° Southeast 454 522 35,000  Level Salt Lake Center
04:16AM 43.1578 -113.8994 125° Southeast 455 524 35,000  Level Salt Lake Center
04:17AM 43.0769 -113.7364 124° Southeast 450 518 35,000  Level Salt Lake Center
04:18AM 43.0086 -113.6022 125° Southeast 449 517 35,000  Level Salt Lake Center
04:19AM 42.9400 -113.4675 125° Southeast 451 519 35,000  Level Salt Lake Center
04:20AM 42.8594 -113.3125 125° Southeast 450 518 35,000  Level Salt Lake Center
04:21AM 42.7914 -113.1778 125° Southeast 452 520 35,000  Level Salt Lake Center
04:22AM 42.7222 -113.0450 125° Southeast 449 517 35,000  Level Salt Lake Center
04:23AM 42.6419 -112.8925 126° Southeast 451 519 35,000  Level Salt Lake Center
04:24AM 42.5708 -112.7533 125° Southeast 449 517 35,000  Level Salt Lake Center
04:25AM 42.4972 -112.6164 126° Southeast 450 518 35,000  Level Salt Lake Center
04:26AM 42.4242 -112.4781 126° Southeast 452 520 35,000  Level Salt Lake Center
04:27AM 42.3511 -112.3392 125° Southeast 453 521 35,000  Level Salt Lake Center
04:28AM 42.2772 -112.2006 126° Southeast 455 524 35,000  Level Salt Lake Center
04:29AM 42.2033 -112.0622 126° Southeast 455 524 35,000  Level Salt Lake Center
04:30AM 42.1292 -111.9231 126° Southeast 457 526 35,000  Level Salt Lake Center
04:31AM 42.0544 -111.7842 126° Southeast 458 527 35,000  Level Salt Lake Center
04:32AM 41.9803 -111.6483 126° Southeast 452 520 35,000  Level Salt Lake Center
04:33AM 41.9050 -111.5117 126° Southeast 453 521 35,000  Level Salt Lake Center
04:34AM 41.8300 -111.3750 126° Southeast 455 524 35,000  Level Salt Lake Center
04:35AM 41.7561 -111.2392 126° Southeast 452 520 35,000  Level Salt Lake Center
04:36AM 41.6803 -111.1014 126° Southeast 457 526 35,000  Level Salt Lake Center
04:37AM 41.6031 -110.9647 127° Southeast 460 529 35,000  Level Salt Lake Center
04:38AM 41.5375 -110.8439 126° Southeast 461 531 35,000  Level Salt Lake Center
04:39AM 41.4531 -110.6931 127° Southeast 457 526 35,000  Level Salt Lake Center
04:40AM 41.3797 -110.5644 127° Southeast 456 525 35,000  Level Salt Lake Center
04:41AM 41.3081 -110.4367 127° Southeast 453 521 35,000  Level Salt Lake Center
04:42AM 41.2361 -110.3078 127° Southeast 454 522 35,000  Level Salt Lake Center
04:43AM 41.1514 -110.1575 127° Southeast 457 526 35,000  Level Salt Lake Center
04:44AM 41.0778 -110.0300 127° Southeast 457 526 35,000  Level Salt Lake Center
04:45AM 41.0053 -109.9022 127° Southeast 455 524 35,000  Level Salt Lake Center
04:46AM 40.9197 -109.7539 127° Southeast 455 524 35,000  Level Salt Lake Center
04:47AM 40.8456 -109.6272 128° Southeast 457 526 35,000  Level Salt Lake Center
04:48AM 40.7656 -109.4897 128° Southeast 452 520 35,000  Level Salt Lake Center
04:49AM 40.6922 -109.3633 127° Southeast 452 520 35,000  Level Salt Lake Center
04:50AM 40.6178 -109.2378 128° Southeast 455 524 35,000  Level Salt Lake Center
04:51AM 40.5433 -109.1097 127° Southeast 458 527 35,100  Climbing Salt Lake Center
04:52AM 40.4569 -108.9628 128° Southeast 455 524 35,000 -60 Descending Salt Lake Center
04:53AM 40.3803 -108.8336 128° Southeast 454 522 35,000  Level Salt Lake Center
04:54AM 40.3061 -108.7092 128° Southeast 454 522 35,000  Level Salt Lake Center
04:55AM 40.2333 -108.5875 128° Southeast 455 524 35,000  Level Salt Lake Center
04:56AM 40.1467 -108.4408 128° Southeast 453 521 35,000  Level Salt Lake Center
04:57AM 40.0717 -108.3158 128° Southeast 455 524 35,000  Level Salt Lake Center
04:58AM 39.9969 -108.1911 128° Southeast 454 522 35,000  Level Salt Lake Center
04:59AM 39.9203 -108.0675 129° Southeast 456 525 35,000  Level Salt Lake Center
05:00AM 39.8311 -107.9222 129° Southeast 455 524 35,000  Level Salt Lake Center
05:01AM 39.7431 -107.7775 128° Southeast 453 521 35,000  Level Denver Center
05:02AM 39.6664 -107.6542 129° Southeast 456 525 35,000  Level Denver Center
05:03AM 39.5911 -107.5319 129° Southeast 453 521 35,000  Level Denver Center
05:04AM 39.5014 -107.3911 130° Southeast 453 521 35,000  Level Denver Center
05:05AM 39.4250 -107.2683 129° Southeast 455 524 35,000  Level Denver Center
05:06AM 39.3500 -107.1461 128° Southeast 453 521 35,000  Level Denver Center
05:07AM 39.2617 -107.0056 129° Southeast 450 518 35,000  Level Denver Center
05:08AM 39.1856 -106.8850 129° Southeast 451 519 35,000  Level Denver Center
05:09AM 39.1097 -106.7658 129° Southeast 449 517 35,000  Level Denver Center
05:10AM 39.0328 -106.6469 130° Southeast 451 519 35,000  Level Denver Center
05:11AM 38.9433 -106.5086 130° Southeast 451 519 35,000  Level Denver Center
05:12AM 38.8778 -106.4072 130° Southeast 450 518 35,000  Level Denver Center
05:13AM 38.7967 -106.2783 129° Southeast 450 518 35,000  Level Denver Center
05:14AM 38.7067 -106.1408 130° Southeast 452 520 35,000  Level Denver Center
05:15AM 38.6300 -106.0208 129° Southeast 455 524 35,000  Level Denver Center
05:16AM 38.5506 -105.9019 130° Southeast 457 526 35,000  Level Denver Center
05:17AM 38.4606 -105.7592 129° Southeast 462 532 35,000  Level Denver Center
05:18AM 38.3808 -105.6397 130° Southeast 462 532 35,000  Level Denver Center
05:19AM 38.3017 -105.5214 130° Southeast 459 528 35,000  Level Denver Center
05:20AM 38.2097 -105.3822 130° Southeast 460 529 35,000  Level Denver Center
05:21AM 38.1322 -105.2631 130° Southeast 458 527 35,000  Level Denver Center
05:22AM 38.0522 -105.1453 131° Southeast 459 528 35,000  Level Denver Center
05:23AM 37.9736 -105.0264 130° Southeast 459 528 35,000  Level Denver Center
05:24AM 37.8814 -104.8886 130° Southeast 461 531 35,000  Level Denver Center
05:25AM 37.8019 -104.7703 130° Southeast 459 528 35,000  Level Denver Center
05:26AM 37.7222 -104.6519 130° Southeast 461 531 35,000  Level Denver Center
05:27AM 37.6283 -104.5147 131° Southeast 464 534 35,000  Level Denver Center
05:28AM 37.5478 -104.3975 131° Southeast 464 534 35,000  Level Denver Center
05:29AM 37.4675 -104.2806 131° Southeast 464 534 35,000  Level Denver Center
05:30AM 37.3742 -104.1458 131° Southeast 465 535 35,000  Level Denver Center
05:31AM 37.2939 -104.0292 131° Southeast 467 537 35,000  Level Denver Center
05:32AM 37.2131 -103.9133 131° Southeast 464 534 35,000  Level Denver Center
05:33AM 37.1200 -103.7778 131° Southeast 463 533 35,000  Level Denver Center
05:34AM 37.0800 -103.7203 131° Southeast 463 533 35,000  Level Albuquerque Center
05:35AM 36.9861 -103.5861 131° Southeast 459 528 35,000  Level Albuquerque Center
05:36AM 36.9050 -103.4703 131° Southeast 462 532 35,000  Level Albuquerque Center
05:37AM 36.8233 -103.3558 132° Southeast 463 533 35,000 540 Level Albuquerque Center
05:38AM 36.7419 -103.2408 131° Southeast 461 531 36,100 960 Climbing Albuquerque Center
05:39AM 36.6486 -103.1081 131° Southeast 458 527 37,000 420 Climbing Albuquerque Center
05:40AM 36.5656 -102.9914 132° Southeast 457 526 37,000 -600 Level Albuquerque Center
05:41AM 36.4764 -102.8681 132° Southeast 460 529 35,800 -1,020 Descending Albuquerque Center
05:42AM 36.3911 -102.7475 131° Southeast 463 533 35,000 -420 Descending Albuquerque Center
05:43AM 36.3033 -102.6261 132° Southeast 470 541 35,000  Level Albuquerque Center
05:44AM 36.2156 -102.5061 132° Southeast 471 542 35,000  Level Albuquerque Center
05:45AM 36.1278 -102.3836 132° Southeast 474 545 35,000  Level Albuquerque Center
05:46AM 36.0389 -102.2625 132° Southeast 476 548 35,000  Level Albuquerque Center
05:47AM 35.9508 -102.1400 132° Southeast 476 548 35,000  Level Albuquerque Center
05:48AM 35.8617 -102.0189 132° Southeast 476 548 35,000  Level Albuquerque Center
05:49AM 35.7728 -101.8983 132° Southeast 476 548 35,000  Level Albuquerque Center
05:50AM 35.6842 -101.7789 132° Southeast 472 543 35,000  Level Albuquerque Center
05:51AM 35.6133 -101.6819 132° Southeast 474 545 35,000  Level Albuquerque Center
05:52AM 35.5239 -101.5614 132° Southeast 472 543 35,000  Level Albuquerque Center
05:53AM 35.4328 -101.4372 132° Southeast 472 543 35,000  Level Albuquerque Center
05:54AM 35.3428 -101.3192 133° Southeast 472 543 35,000  Level Albuquerque Center
05:55AM 35.2542 -101.2003 132° Southeast 473 544 35,000  Level Albuquerque Center
05:56AM 35.1658 -101.0833 133° Southeast 471 542 35,000  Level Albuquerque Center
05:57AM 35.0786 -100.9669 132° Southeast 467 537 35,000  Level Albuquerque Center
05:58AM 34.9900 -100.8494 133° Southeast 468 539 35,000  Level Albuquerque Center
05:59AM 34.9003 -100.7311 133° Southeast 470 541 35,000  Level Albuquerque Center
06:00AM 34.8103 -100.6136 133° Southeast 473 544 35,000  Level Albuquerque Center
06:01AM 34.7203 -100.4964 133° Southeast 474 545 35,100  Climbing Albuquerque Center
06:02AM 34.6308 -100.3808 133° Southeast 472 543 35,000 -60 Descending Albuquerque Center
06:03AM 34.5419 -100.2656 133° Southeast 470 541 35,000  Level Albuquerque Center
06:04AM 34.4542 -100.1511 133° Southeast 467 537 35,000  Level Albuquerque Center
06:04AM 34.4033 -100.0867 134° Southeast 463 533 35,000  Level Fort Worth Center
06:05AM 34.3222 -99.9858 134° Southeast 458 527 35,000  Level Fort Worth Center
06:06AM 34.2325 -99.8728 134° Southeast 458 527 35,000  Level Fort Worth Center
06:07AM 34.1450 -99.7572 132° Southeast 463 533 35,000  Level Fort Worth Center
06:08AM 34.0533 -99.6419 134° Southeast 463 533 35,000  Level Fort Worth Center
06:09AM 33.9633 -99.5294 134° Southeast 463 533 35,000  Level Fort Worth Center
06:10AM 33.8736 -99.4097 132° Southeast 463 533 35,000  Level Fort Worth Center
06:11AM 33.7833 -99.2978 134° Southeast 463 533 35,000  Level Fort Worth Center
06:12AM 33.6892 -99.1833 135° Southeast 463 533 35,000  Level Fort Worth Center
06:13AM 33.5969 -99.0669 134° Southeast 463 533 35,000  Level Fort Worth Center
06:14AM 33.5022 -98.9506 134° Southeast 468 539 35,000  Level Fort Worth Center
06:15AM 33.4078 -98.8319 134° Southeast 478 550 35,100  Climbing Fort Worth Center
06:16AM 33.3131 -98.7136 134° Southeast 484 557 35,000 -60 Descending Fort Worth Center
06:17AM 33.2203 -98.6003 134° Southeast 484 557 35,000  Level Fort Worth Center
06:18AM 33.1272 -98.4850 134° Southeast 484 557 35,000  Level Fort Worth Center
06:19AM 33.0342 -98.3750 135° Southeast 479 551 35,000  Level Fort Worth Center
06:20AM 32.9433 -98.2625 134° Southeast 479 551 35,000 -900 Level Fort Worth Center
06:21AM 32.8500 -98.1503 135° Southeast 484 557 33,200 -1,020 Descending Fort Worth Center
06:22AM 32.7525 -98.0358 135° Southeast 484 557 33,000 -120 Descending Fort Worth Center
06:23AM 32.6592 -97.9192 134° Southeast 484 557 33,000  Level Fort Worth Center
06:24AM 32.5633 -97.8003 134° Southeast 490 564 33,000  Level Fort Worth Center
06:25AM 32.4719 -97.6867 134° Southeast 490 564 33,000  Level Fort Worth Center
06:26AM 32.3781 -97.5708 134° Southeast 490 564 33,000  Level Fort Worth Center
06:27AM 32.2822 -97.4503 133° Southeast 490 564 33,000  Level Fort Worth Center
06:28AM 32.1903 -97.3372 134° Southeast 485 558 33,000  Level Fort Worth Center
06:29AM 32.0964 -97.2222 134° Southeast 485 558 33,000  Level Fort Worth Center
06:30AM 32.0022 -97.1047 133° Southeast 490 564 33,000  Level Fort Worth Center
06:31AM 31.9142 -96.9925 133° Southeast 474 545 33,000  Level Fort Worth Center
06:32AM 31.8114 -96.8658 134° Southeast 480 552 33,000  Level Fort Worth Center
06:33AM 31.7850 -96.8344 135° Southeast 485 558 33,000  Level Houston Center
06:34AM 31.6900 -96.7192 134° Southeast 485 558 33,000  Level Houston Center
06:35AM 31.5936 -96.6031 134° Southeast 488 562 33,000  Level Houston Center
06:36AM 31.4839 -96.5094 144° Southeast 484 557 33,000 -300 Level Houston Center
06:37AM 31.3617 -96.4411 154° Southeast 481 554 32,500 -1,080 Descending Houston Center
06:38AM 31.2428 -96.3736 154° Southeast 471 542 30,900 -1,800 Descending Houston Center
06:38AM 31.1997 -96.3539 159° South 463 533 30,100 -1,920 Descending Houston Center
06:39AM 31.1278 -96.3097 152° Southeast 456 525 29,000 -1,680 Descending Houston Center
06:39AM 31.0942 -96.2928 157° South 441 507 28,400 -2,040 Descending Houston Center
06:40AM 31.0372 -96.2600 154° Southeast 434 499 27,000 -2,520 Descending Houston Center
06:40AM 30.9819 -96.2322 157° South 422 486 25,900 -2,040 Descending Houston Center
06:41AM 30.9292 -96.2000 152° Southeast 425 489 25,000 -1,860 Descending Houston Center
06:41AM 30.8894 -96.1794 156° South 419 482 24,200 -1,980 Descending Houston Center
06:42AM 30.8253 -96.1431 154° Southeast 411 473 23,000 -2,220 Descending Houston Center
06:42AM 30.7839 -96.1208 155° Southeast 402 463 22,000 -2,520 Descending Houston Center
06:43AM 30.7247 -96.0861 153° Southeast 399 459 20,500 -2,160 Descending Houston Center
06:43AM 30.6803 -96.0622 155° Southeast 399 459 19,600 -2,040 Descending Houston Center
06:44AM 30.6192 -96.0278 154° Southeast 394 453 18,500 -1,800 Descending Houston Center
06:44AM 30.5769 -96.0064 156° South 381 438 17,800 -1,800 Descending Houston Center
06:45AM 30.5256 -95.9767 154° Southeast 373 429 16,700 -1,620 Descending Houston Center
06:45AM 30.4842 -95.9539 155° Southeast 363 418 16,200 -1,800 Descending Houston Center
06:46AM 30.4358 -95.9269 154° Southeast 361 415 14,900 -1,980 Descending Houston Center
06:46AM 30.4028 -95.9100 156° South 354 407 14,400 -1,620 Descending Houston Center
06:47AM 30.3472 -95.8792 154° Southeast 352 405 13,300 -1,620 Descending Houston Center
06:48AM 30.2642 -95.8325 154° Southeast 336 387 11,700 -1,320 Descending Houston Center
06:49AM 30.1836 -95.7906 156° South 321 369 10,700 -1,620 Descending Houston Center
06:50AM 30.1133 -95.7494 153° Southeast 290 334 8,500 -2,280 Descending Houston Center
06:51AM 30.0447 -95.7122 155° Southeast 276 318 6,200 -1,860 Descending Houston Center
06:52AM 30.0017 -95.6494 128° Southeast 259 298 4,800 -1,200 Descending Houston Center
06:53AM 29.9922 -95.5794 99° East 224 258 3,800 -1,020 Descending Houston Center